Time;durP1;ratioP1;P1;durP2;ratioP2;P2;SDS_P1;SDS_P2;PMS_P1;PMS_P2;Temp;Humidity;BMP_temperature;BMP_pressure;BME280_temperature;BME280_humidity;BME280_pressure;Samples;Min_cycle;Max_cycle;Signal;HPM_P1;HPM_P2
2023/03/13 00:01:38;;;;;;;31.23;6.28;;;7.90;99.90;;;;;;5033147;28;20409;-72
2023/03/13 00:04:04;;;;;;;29.75;6.00;;;7.90;99.90;;;;;;5019064;28;20099;-72
2023/03/13 00:06:33;;;;;;;33.95;6.20;;;7.90;99.90;;;;;;5038699;28;20451;-72
2023/03/13 00:08:59;;;;;;;30.38;5.72;;;7.90;99.90;;;;;;5037767;28;20056;-72
2023/03/13 00:11:26;;;;;;;28.10;4.90;;;7.90;99.90;;;;;;5034773;28;20465;-72
2023/03/13 00:13:56;;;;;;;28.52;5.68;;;7.90;99.90;;;;;;5023550;28;20113;-72
2023/03/13 00:16:23;;;;;;;27.65;5.22;;;7.90;99.90;;;;;;5042955;28;20033;-72
2023/03/13 00:18:51;;;;;;;27.77;5.88;;;7.90;99.90;;;;;;5043770;28;20072;-72
2023/03/13 00:21:18;;;;;;;28.60;5.05;;;7.90;99.90;;;;;;5045399;28;20124;-73
2023/03/13 00:23:44;;;;;;;34.85;6.18;;;7.90;99.90;;;;;;5039994;28;20053;-72
2023/03/13 00:26:13;;;;;;;32.80;6.30;;;7.90;99.90;;;;;;5043328;28;20033;-72
2023/03/13 00:28:40;;;;;;;29.70;5.53;;;7.90;99.90;;;;;;5036971;28;20065;-73
2023/03/13 00:31:24;;;;;;;29.10;6.65;;;7.90;99.90;;;;;;5032189;28;20095;-73
2023/03/13 00:33:53;;;;;;;26.45;6.15;;;7.90;99.90;;;;;;5031702;28;20080;-72
2023/03/13 00:36:21;;;;;;;26.67;5.55;;;8.00;99.90;;;;;;5023778;28;20071;-73
2023/03/13 00:38:47;;;;;;;29.98;6.20;;;8.00;99.90;;;;;;5037742;28;20048;-73
2023/03/13 00:41:21;;;;;;;29.03;6.57;;;8.00;99.90;;;;;;5037340;28;20088;-72
2023/03/13 00:43:48;;;;;;;27.33;5.57;;;8.10;99.90;;;;;;5039975;28;20299;-72
2023/03/13 00:46:17;;;;;;;31.40;6.43;;;8.10;99.90;;;;;;5039608;28;20041;-72
2023/03/13 00:48:42;;;;;;;33.65;5.80;;;8.10;99.90;;;;;;5021286;28;21434;-72
2023/03/13 00:51:09;;;;;;;29.83;5.77;;;8.10;99.90;;;;;;5038201;28;20118;-72
2023/03/13 00:53:35;;;;;;;33.53;6.25;;;8.20;99.90;;;;;;5035719;28;20037;-72
2023/03/13 00:56:07;;;;;;;28.95;6.00;;;8.10;99.90;;;;;;5022020;28;20068;-72
2023/03/13 00:58:35;;;;;;;27.83;5.30;;;8.10;99.90;;;;;;5038707;28;20049;-72
2023/03/13 01:01:16;;;;;;;22.73;5.03;;;8.20;99.90;;;;;;5025232;28;20467;-73
2023/03/13 01:03:45;;;;;;;23.45;5.32;;;8.20;99.90;;;;;;5036974;28;20052;-72
2023/03/13 01:06:13;;;;;;;38.72;5.93;;;8.20;99.90;;;;;;5039002;28;20071;-72
2023/03/13 01:08:39;;;;;;;26.85;5.28;;;8.20;99.90;;;;;;5038639;28;20044;-72
2023/03/13 01:11:08;;;;;;;31.30;5.68;;;8.20;99.90;;;;;;5038038;28;20030;-72
2023/03/13 01:13:35;;;;;;;27.23;4.93;;;8.20;99.90;;;;;;5021611;28;20046;-72
2023/03/13 01:16:07;;;;;;;26.77;5.30;;;8.20;99.90;;;;;;5038620;28;20033;-72
2023/03/13 01:18:34;;;;;;;25.73;6.05;;;8.20;99.90;;;;;;5033595;28;20172;-72
2023/03/13 01:21:00;;;;;;;29.95;5.68;;;8.20;99.90;;;;;;5023253;28;20037;-72
2023/03/13 01:23:26;;;;;;;23.75;5.82;;;8.30;99.90;;;;;;5026991;28;20052;-72
2023/03/13 01:25:54;;;;;;;28.63;5.60;;;8.30;99.90;;;;;;5044355;28;20108;-72
2023/03/13 01:28:20;;;;;;;25.58;4.60;;;8.30;99.90;;;;;;5035984;28;20073;-72
2023/03/13 01:30:46;;;;;;;28.23;5.47;;;8.30;99.90;;;;;;5041050;28;20063;-72
2023/03/13 01:33:12;;;;;;;30.17;6.03;;;8.30;99.90;;;;;;5019400;28;20042;-72
2023/03/13 01:35:38;;;;;;;32.43;6.07;;;8.30;99.90;;;;;;5012305;28;20667;-72
2023/03/13 01:38:04;;;;;;;30.80;6.30;;;8.30;99.90;;;;;;4993443;28;20038;-72
2023/03/13 01:40:29;;;;;;;40.90;6.97;;;8.30;99.90;;;;;;5031307;28;20125;-72
2023/03/13 01:42:57;;;;;;;27.17;5.57;;;8.20;99.90;;;;;;5023336;28;20076;-72
2023/03/13 01:45:48;;;;;;;27.85;5.97;;;8.20;99.90;;;;;;5016951;28;20135;-71
2023/03/13 01:48:14;;;;;;;29.75;6.05;;;8.20;99.90;;;;;;5035822;28;20087;-71
2023/03/13 01:50:40;;;;;;;32.20;6.30;;;8.20;99.90;;;;;;5017462;28;20053;-71
2023/03/13 01:53:05;;;;;;;32.77;6.40;;;8.10;99.90;;;;;;5039325;28;20044;-71
2023/03/13 01:55:32;;;;;;;24.33;5.90;;;8.10;99.90;;;;;;5038079;28;20547;-72
2023/03/13 01:57:59;;;;;;;29.95;7.95;;;8.10;99.90;;;;;;5023934;28;20067;-72
2023/03/13 02:00:31;;;;;;;31.38;6.70;;;8.10;99.90;;;;;;5030533;28;20045;-72
2023/03/13 02:03:01;;;;;;;31.10;6.57;;;8.10;99.90;;;;;;5025869;28;20034;-72
2023/03/13 02:05:27;;;;;;;28.45;6.40;;;8.10;99.90;;;;;;5043785;28;20506;-72
2023/03/13 02:08:05;;;;;;;25.10;6.63;;;8.10;99.90;;;;;;5023391;28;20155;-72
2023/03/13 02:10:37;;;;;;;31.13;7.53;;;8.10;99.90;;;;;;5030374;28;20042;-72
2023/03/13 02:13:02;;;;;;;19.10;6.30;;;8.10;99.90;;;;;;5032183;28;20073;-72
2023/03/13 02:15:30;;;;;;;26.37;7.30;;;8.10;99.90;;;;;;5020973;28;20428;-72
2023/03/13 02:17:56;;;;;;;23.40;6.72;;;8.10;99.90;;;;;;5037608;28;20029;-72
2023/03/13 02:20:22;;;;;;;28.42;6.45;;;8.10;99.90;;;;;;5013214;28;20101;-72
2023/03/13 02:23:07;;;;;;;23.83;5.78;;;8.10;99.90;;;;;;5034361;28;20114;-71
2023/03/13 02:25:45;;;;;;;23.67;6.55;;;8.10;99.90;;;;;;5017263;28;20051;-72
2023/03/13 02:28:24;;;;;;;19.55;6.53;;;8.10;99.90;;;;;;5015818;28;20508;-72
2023/03/13 02:30:53;;;;;;;18.63;5.55;;;8.20;99.90;;;;;;5034030;28;20046;-72
2023/03/13 02:33:20;;;;;;;16.15;5.30;;;8.20;99.90;;;;;;5035121;28;20052;-71
2023/03/13 02:35:47;;;;;;;19.40;5.95;;;8.20;99.90;;;;;;5004190;28;20580;-71
2023/03/13 02:38:19;;;;;;;17.73;6.03;;;8.20;99.90;;;;;;5035600;28;20075;-72
2023/03/13 02:40:46;;;;;;;18.20;6.03;;;8.20;99.90;;;;;;5013292;28;20033;-72
2023/03/13 02:43:35;;;;;;;19.50;5.75;;;8.20;99.90;;;;;;5032794;28;20397;-72
2023/03/13 02:46:00;;;;;;;15.45;5.38;;;8.20;99.90;;;;;;5005227;28;20084;-72
2023/03/13 02:48:36;;;;;;;18.00;6.10;;;8.20;99.90;;;;;;5030631;28;20048;-72
2023/03/13 02:51:05;;;;;;;14.85;5.45;;;8.20;99.90;;;;;;5034776;28;20080;-72
2023/03/13 02:53:32;;;;;;;18.80;5.78;;;8.20;99.90;;;;;;5011719;28;20045;-72
2023/03/13 02:55:58;;;;;;;13.98;5.20;;;8.20;99.90;;;;;;5036521;28;20037;-72
2023/03/13 02:58:24;;;;;;;16.90;5.60;;;8.30;99.90;;;;;;5028830;28;20160;-72
2023/03/13 03:00:51;;;;;;;12.57;4.97;;;8.20;99.90;;;;;;5021057;28;20303;-72
2023/03/13 03:03:17;;;;;;;12.82;5.50;;;8.30;99.90;;;;;;5018700;28;20115;-72
2023/03/13 03:05:43;;;;;;;11.00;4.97;;;8.30;99.90;;;;;;5020004;28;20067;-72
2023/03/13 03:08:08;;;;;;;13.53;5.60;;;8.30;99.90;;;;;;5031190;28;20684;-72
2023/03/13 03:10:37;;;;;;;13.97;5.90;;;8.30;99.90;;;;;;5037173;28;20081;-72
2023/03/13 03:13:03;;;;;;;14.07;5.20;;;8.40;99.90;;;;;;5026726;28;20107;-72
2023/03/13 03:15:29;;;;;;;12.37;5.93;;;8.40;99.90;;;;;;5027679;28;20045;-72
2023/03/13 03:17:54;;;;;;;10.93;5.57;;;8.50;99.90;;;;;;5025961;28;20103;-72
2023/03/13 03:20:20;;;;;;;11.03;5.17;;;8.50;99.90;;;;;;4985415;28;20050;-72
2023/03/13 03:22:46;;;;;;;10.27;5.47;;;8.60;99.90;;;;;;5006348;28;20049;-72
2023/03/13 03:25:11;;;;;;;8.70;5.50;;;8.70;99.90;;;;;;5008411;28;20042;-72
2023/03/13 03:27:37;;;;;;;11.13;6.20;;;8.80;99.90;;;;;;5013433;28;20076;-72
2023/03/13 03:30:04;;;;;;;12.27;6.67;;;8.90;99.90;;;;;;5025944;28;20033;-72
2023/03/13 03:32:30;;;;;;;12.05;7.35;;;9.00;99.90;;;;;;5042557;28;20535;-72
2023/03/13 03:34:55;;;;;;;13.63;7.17;;;9.00;99.90;;;;;;5017569;28;20044;-72
2023/03/13 03:37:21;;;;;;;13.87;7.07;;;9.10;99.90;;;;;;5004247;28;20069;-72
2023/03/13 03:39:47;;;;;;;12.13;7.10;;;9.10;99.90;;;;;;5012599;28;20137;-72
2023/03/13 03:42:12;;;;;;;13.47;7.67;;;9.10;99.90;;;;;;5009756;28;20076;-72
2023/03/13 03:44:38;;;;;;;12.93;7.20;;;9.10;99.90;;;;;;4999306;28;20030;-72
2023/03/13 03:47:04;;;;;;;13.63;7.83;;;9.10;99.90;;;;;;5030546;28;20041;-72
2023/03/13 03:49:29;;;;;;;13.33;8.10;;;9.10;99.90;;;;;;5028941;28;20050;-72
2023/03/13 03:51:55;;;;;;;14.13;8.23;;;9.10;99.90;;;;;;5017600;28;20072;-72
2023/03/13 03:54:21;;;;;;;13.80;8.30;;;9.00;99.90;;;;;;5035589;28;20037;-72
2023/03/13 03:56:46;;;;;;;18.70;8.87;;;9.00;99.90;;;;;;5012623;28;20041;-71
2023/03/13 03:59:12;;;;;;;14.63;9.03;;;9.00;99.90;;;;;;5035923;28;20038;-72
2023/03/13 04:01:38;;;;;;;15.40;9.20;;;8.90;99.90;;;;;;5030173;28;20069;-72
2023/03/13 04:04:03;;;;;;;16.00;9.10;;;8.90;99.90;;;;;;5016761;28;20042;-72
2023/03/13 04:06:29;;;;;;;20.77;10.50;;;8.90;99.90;;;;;;5004145;28;20101;-72
2023/03/13 04:08:55;;;;;;;19.50;10.20;;;8.90;99.90;;;;;;5021429;28;20076;-72
2023/03/13 04:11:21;;;;;;;19.30;10.63;;;8.90;99.90;;;;;;5020909;28;20053;-72
2023/03/13 04:13:46;;;;;;;21.53;10.90;;;8.90;99.90;;;;;;4999937;28;20038;-71
2023/03/13 04:16:12;;;;;;;20.87;10.93;;;8.90;99.90;;;;;;5018291;28;20377;-71
2023/03/13 04:18:38;;;;;;;24.60;11.53;;;8.90;99.90;;;;;;5037270;28;20033;-72
2023/03/13 04:21:05;;;;;;;20.10;11.13;;;8.90;99.90;;;;;;5016663;28;20057;-71
2023/03/13 04:23:30;;;;;;;22.60;10.88;;;8.90;99.90;;;;;;5000466;28;20075;-72
2023/03/13 04:25:56;;;;;;;21.93;9.80;;;9.00;99.90;;;;;;5032233;28;20041;-72
2023/03/13 04:28:22;;;;;;;21.30;9.40;;;9.00;99.90;;;;;;5013594;28;20048;-71
2023/03/13 04:30:47;;;;;;;24.90;9.27;;;9.20;99.90;;;;;;5015084;28;20115;-71
2023/03/13 04:33:13;;;;;;;25.73;9.53;;;9.30;99.90;;;;;;5004279;28;20037;-71
2023/03/13 04:35:39;;;;;;;21.67;9.33;;;9.50;99.90;;;;;;4999976;28;20048;-72
2023/03/13 04:38:04;;;;;;;29.53;9.87;;;9.60;99.90;;;;;;5013595;28;20050;-72
2023/03/13 04:40:30;;;;;;;23.90;8.50;;;9.80;99.90;;;;;;5030670;28;20069;-72
2023/03/13 04:42:56;;;;;;;21.37;8.57;;;9.80;99.90;;;;;;5006685;28;20053;-72
2023/03/13 04:45:21;;;;;;;15.37;6.60;;;9.90;99.90;;;;;;5018167;28;20464;-72
2023/03/13 04:47:47;;;;;;;21.37;7.50;;;10.00;99.90;;;;;;4981913;28;20096;-72
2023/03/13 04:50:13;;;;;;;27.90;8.37;;;10.10;99.90;;;;;;5026041;28;20048;-72
2023/03/13 04:52:39;;;;;;;18.70;7.67;;;10.10;99.90;;;;;;5037366;28;20546;-72
2023/03/13 04:55:05;;;;;;;21.50;7.97;;;10.20;99.90;;;;;;5033455;28;20119;-72
2023/03/13 04:57:30;;;;;;;21.60;9.32;;;10.20;99.90;;;;;;5026661;28;20041;-72
2023/03/13 04:59:56;;;;;;;20.87;7.63;;;10.20;99.90;;;;;;5010709;28;20425;-72
2023/03/13 05:02:22;;;;;;;23.10;7.30;;;10.30;99.90;;;;;;5023409;28;20094;-72
2023/03/13 05:04:47;;;;;;;19.70;6.83;;;10.40;99.90;;;;;;5020751;28;20077;-73
2023/03/13 05:07:13;;;;;;;15.77;6.77;;;10.40;99.90;;;;;;5028132;28;20037;-73
2023/03/13 05:09:39;;;;;;;15.97;6.40;;;10.40;99.90;;;;;;5028667;28;20449;-72
2023/03/13 05:12:05;;;;;;;14.33;6.20;;;10.50;99.90;;;;;;5029482;28;20100;-73
2023/03/13 05:14:30;;;;;;;19.87;6.93;;;10.50;99.90;;;;;;5016963;28;20033;-72
2023/03/13 05:16:56;;;;;;;16.30;6.60;;;10.50;99.90;;;;;;5014905;28;20315;-72
2023/03/13 05:19:22;;;;;;;14.70;7.13;;;10.50;99.90;;;;;;5018767;28;20578;-72
2023/03/13 05:21:47;;;;;;;20.47;7.30;;;10.50;99.90;;;;;;5020284;28;20143;-72
2023/03/13 05:24:13;;;;;;;22.57;7.83;;;10.50;99.90;;;;;;5020406;28;20037;-72
2023/03/13 05:26:39;;;;;;;21.00;8.17;;;10.50;99.90;;;;;;5015852;28;20096;-73
2023/03/13 05:29:04;;;;;;;21.37;7.70;;;10.50;99.90;;;;;;5013863;28;20041;-72
2023/03/13 05:31:30;;;;;;;24.90;8.03;;;10.50;99.90;;;;;;5002046;28;20202;-72
2023/03/13 05:33:56;;;;;;;18.90;7.17;;;10.50;99.90;;;;;;5037543;28;20069;-72
2023/03/13 05:36:21;;;;;;;22.03;6.93;;;10.50;99.90;;;;;;5003620;28;20489;-72
2023/03/13 05:38:48;;;;;;;24.97;7.20;;;10.50;99.90;;;;;;5020716;28;20041;-72
2023/03/13 05:41:13;;;;;;;23.67;7.17;;;10.50;99.90;;;;;;5025544;28;20456;-72
2023/03/13 05:43:39;;;;;;;27.27;8.23;;;10.50;99.90;;;;;;5033390;28;20366;-72
2023/03/13 05:46:05;;;;;;;25.17;8.60;;;10.60;99.90;;;;;;5033317;28;20033;-72
2023/03/13 05:48:30;;;;;;;25.57;8.70;;;10.60;99.90;;;;;;5022066;28;20041;-72
2023/03/13 05:50:56;;;;;;;26.80;9.27;;;10.60;99.90;;;;;;5026124;28;20050;-71
2023/03/13 05:53:22;;;;;;;21.73;8.27;;;10.60;99.90;;;;;;5015788;28;20049;-72
2023/03/13 05:55:47;;;;;;;18.60;6.50;;;10.60;99.90;;;;;;5004216;28;20043;-72
2023/03/13 05:58:13;;;;;;;19.63;6.53;;;10.70;99.90;;;;;;5014978;28;20590;-72
2023/03/13 06:00:39;;;;;;;19.30;5.70;;;10.70;99.90;;;;;;4999630;28;20099;-72
2023/03/13 06:03:04;;;;;;;20.60;5.60;;;10.70;99.90;;;;;;5032503;28;20065;-72
2023/03/13 06:05:30;;;;;;;17.77;4.87;;;10.70;99.90;;;;;;5021686;28;20053;-72
2023/03/13 06:07:56;;;;;;;21.63;4.57;;;10.80;99.90;;;;;;5032818;28;20041;-72
2023/03/13 06:10:21;;;;;;;15.57;4.57;;;10.80;99.90;;;;;;4999465;28;20072;-72
2023/03/13 06:12:55;;;;;;;15.07;4.50;;;10.80;99.90;;;;;;5017402;28;20036;-72
2023/03/13 06:15:21;;;;;;;19.63;4.70;;;10.80;99.90;;;;;;5012732;28;20045;-72
2023/03/13 06:17:47;;;;;;;16.73;4.47;;;10.90;99.90;;;;;;5017778;28;20307;-72
2023/03/13 06:20:14;;;;;;;18.30;3.97;;;10.90;99.90;;;;;;5018780;28;20703;-72
2023/03/13 06:22:40;;;;;;;15.67;4.10;;;11.00;99.90;;;;;;5029362;28;20324;-72
2023/03/13 06:25:06;;;;;;;16.90;4.77;;;11.00;99.90;;;;;;5011727;28;20355;-72
2023/03/13 06:27:32;;;;;;;20.33;3.93;;;11.10;99.90;;;;;;5015774;28;20291;-72
2023/03/13 06:29:57;;;;;;;20.30;5.00;;;11.10;99.90;;;;;;4989436;28;20303;-72
2023/03/13 06:32:23;;;;;;;14.83;3.47;;;11.10;99.90;;;;;;4999675;28;20040;-72
2023/03/13 06:34:49;;;;;;;14.60;3.73;;;11.10;99.90;;;;;;4986026;28;20582;-72
2023/03/13 06:37:15;;;;;;;16.50;4.10;;;11.10;99.90;;;;;;5030572;28;20052;-73
2023/03/13 06:39:41;;;;;;;12.17;4.03;;;11.10;99.90;;;;;;5025122;28;20064;-72
2023/03/13 06:42:07;;;;;;;13.73;3.83;;;11.10;99.90;;;;;;5026570;28;20315;-72
2023/03/13 06:44:32;;;;;;;16.73;4.00;;;11.10;99.90;;;;;;5049891;28;20037;-72
2023/03/13 06:46:58;;;;;;;17.80;4.30;;;11.20;99.90;;;;;;5039352;28;20073;-72
2023/03/13 06:49:24;;;;;;;18.93;4.27;;;11.20;99.90;;;;;;5003440;28;20045;-72
2023/03/13 06:51:49;;;;;;;18.20;4.40;;;11.20;99.90;;;;;;5036114;28;20508;-72
2023/03/13 06:54:15;;;;;;;15.73;4.37;;;11.20;99.90;;;;;;5033300;28;20490;-72
2023/03/13 06:56:41;;;;;;;17.10;3.80;;;11.20;99.90;;;;;;5026787;28;20037;-72
2023/03/13 06:59:07;;;;;;;19.47;4.33;;;11.20;99.90;;;;;;5015921;28;20048;-72
2023/03/13 07:01:33;;;;;;;17.43;4.63;;;11.20;99.90;;;;;;5023866;28;20289;-72
2023/03/13 07:03:59;;;;;;;13.03;3.67;;;11.20;99.90;;;;;;5022349;28;20311;-72
2023/03/13 07:06:25;;;;;;;22.53;4.80;;;11.20;99.90;;;;;;5028201;28;20053;-73
2023/03/13 07:08:51;;;;;;;18.53;4.00;;;11.20;99.90;;;;;;5017945;28;20037;-72
2023/03/13 07:11:17;;;;;;;17.60;3.93;;;11.20;99.90;;;;;;5006269;28;20300;-72
2023/03/13 07:13:43;;;;;;;15.13;3.87;;;11.20;99.90;;;;;;5023015;28;20045;-72
2023/03/13 07:16:12;;;;;;;13.07;4.07;;;11.20;99.90;;;;;;5012938;28;20290;-73
2023/03/13 07:18:40;;;;;;;15.60;4.60;;;11.20;99.90;;;;;;5012380;28;20120;-72
2023/03/13 07:21:08;;;;;;;11.90;3.57;;;11.20;99.90;;;;;;5033942;28;20680;-72
2023/03/13 07:23:34;;;;;;;15.33;3.63;;;11.20;99.90;;;;;;5024001;28;20494;-72
2023/03/13 07:26:06;;;;;;;15.53;3.93;;;11.20;99.90;;;;;;5007633;28;20303;-72
2023/03/13 07:28:33;;;;;;;14.53;4.10;;;11.20;99.90;;;;;;5036575;28;20292;-72
2023/03/13 07:31:14;;;;;;;13.70;4.00;;;11.20;99.90;;;;;;5041006;28;20292;-72
2023/03/13 07:33:40;;;;;;;16.13;3.90;;;11.20;99.90;;;;;;5022858;28;20376;-72
2023/03/13 07:36:06;;;;;;;16.10;3.57;;;11.20;99.90;;;;;;5046397;28;20297;-72
2023/03/13 07:38:32;;;;;;;15.33;3.17;;;11.10;99.90;;;;;;5041452;28;20292;-72
2023/03/13 07:40:58;;;;;;;15.53;3.93;;;11.10;99.90;;;;;;5033588;28;20342;-72
2023/03/13 07:43:25;;;;;;;12.93;3.90;;;11.10;99.90;;;;;;5034062;28;20806;-72
2023/03/13 07:46:00;;;;;;;19.23;5.40;;;11.20;99.90;;;;;;5022040;28;20113;-72
2023/03/13 07:48:40;;;;;;;13.03;4.17;;;11.20;99.90;;;;;;5039041;28;20363;-73
2023/03/13 07:51:11;;;;;;;16.87;4.60;;;11.20;99.90;;;;;;5016707;28;20068;-72
2023/03/13 07:53:36;;;;;;;12.50;3.97;;;11.20;99.90;;;;;;5039296;28;20321;-73
2023/03/13 07:56:22;;;;;;;16.73;4.60;;;11.20;99.90;;;;;;5042507;28;20287;-71
2023/03/13 07:58:49;;;;;;;10.67;4.00;;;11.20;99.90;;;;;;5033897;28;20038;-73
2023/03/13 08:01:16;;;;;;;13.00;5.13;;;11.20;99.90;;;;;;5038747;28;20276;-73
2023/03/13 08:03:48;;;;;;;12.83;4.20;;;11.20;99.90;;;;;;5041822;28;20696;-72
2023/03/13 08:06:15;;;;;;;15.87;4.13;;;11.20;99.90;;;;;;5025404;28;20387;-73
2023/03/13 08:08:42;;;;;;;12.37;3.47;;;11.10;99.90;;;;;;5020138;28;20288;-73
2023/03/13 08:11:10;;;;;;;16.27;4.23;;;11.10;99.90;;;;;;5029016;28;20304;-73
2023/03/13 08:13:36;;;;;;;16.67;3.23;;;11.10;99.90;;;;;;5030216;28;20363;-73
2023/03/13 08:16:06;;;;;;;16.33;4.40;;;11.20;99.90;;;;;;5045503;28;20279;-73
2023/03/13 08:18:34;;;;;;;11.63;3.33;;;11.30;99.90;;;;;;5044604;28;20344;-73
2023/03/13 08:21:20;;;;;;;15.07;4.00;;;11.30;99.90;;;;;;5039866;28;20870;-73
2023/03/13 08:23:47;;;;;;;14.73;3.90;;;11.40;99.90;;;;;;5024940;28;20295;-73
2023/03/13 08:26:15;;;;;;;11.57;2.60;;;11.50;99.90;;;;;;5043377;28;20284;-73
2023/03/13 08:28:42;;;;;;;16.47;3.90;;;11.60;99.90;;;;;;5048973;28;20288;-73
2023/03/13 08:31:17;;;;;;;11.60;2.87;;;11.60;99.90;;;;;;5042136;28;20300;-73
2023/03/13 08:33:45;;;;;;;10.40;2.77;;;11.60;99.90;;;;;;5040925;28;20398;-74
2023/03/13 08:36:19;;;;;;;10.27;2.90;;;11.70;99.90;;;;;;5045598;28;20775;-74
2023/03/13 08:38:46;;;;;;;9.90;2.40;;;11.70;99.90;;;;;;5044865;28;20593;-74
2023/03/13 08:41:18;;;;;;;16.10;3.47;;;11.80;99.90;;;;;;5043744;28;20043;-72
2023/03/13 08:43:44;;;;;;;11.33;2.73;;;11.80;99.90;;;;;;5040889;28;20771;-73
2023/03/13 08:46:10;;;;;;;20.37;2.90;;;11.80;99.90;;;;;;5039662;28;20284;-74
2023/03/13 08:48:36;;;;;;;11.63;2.73;;;11.90;99.90;;;;;;5040249;28;20647;-73
2023/03/13 08:51:13;;;;;;;12.70;2.80;;;12.00;99.90;;;;;;5037862;28;20053;-73
2023/03/13 08:53:41;;;;;;;12.63;2.83;;;12.00;99.90;;;;;;5047570;28;20049;-74
2023/03/13 08:56:12;;;;;;;10.47;3.07;;;12.00;99.90;;;;;;5042159;28;20284;-73
2023/03/13 08:58:39;;;;;;;9.83;2.43;;;12.00;99.90;;;;;;5036916;28;20284;-73
2023/03/13 09:01:10;;;;;;;11.30;2.63;;;12.00;99.90;;;;;;5007235;28;20292;-73
2023/03/13 09:03:36;;;;;;;8.80;2.13;;;12.00;99.90;;;;;;5015567;28;20765;-72
2023/03/13 09:06:03;;;;;;;14.57;3.27;;;12.00;99.90;;;;;;5046530;28;20323;-73
2023/03/13 09:08:29;;;;;;;11.40;2.73;;;12.10;99.90;;;;;;5036011;28;20320;-73
2023/03/13 09:11:11;;;;;;;11.57;2.90;;;12.10;99.90;;;;;;5033798;28;20331;-74
2023/03/13 09:13:40;;;;;;;16.93;3.30;;;12.10;99.90;;;;;;5058579;28;20288;-74
2023/03/13 09:16:08;;;;;;;17.10;4.07;;;12.10;99.90;;;;;;5026950;28;20347;-74
2023/03/13 09:18:34;;;;;;;14.13;3.40;;;12.00;99.90;;;;;;5038730;28;20287;-74
2023/03/13 09:21:00;;;;;;;17.57;3.60;;;12.00;99.90;;;;;;5041100;28;20276;-73
2023/03/13 09:23:26;;;;;;;16.07;3.20;;;11.80;99.90;;;;;;5026978;28;20279;-74
2023/03/13 09:25:54;;;;;;;21.07;4.00;;;11.80;99.90;;;;;;5024690;28;20288;-74
2023/03/13 09:28:21;;;;;;;15.63;3.83;;;11.60;99.90;;;;;;5037199;28;20105;-73
2023/03/13 09:30:48;;;;;;;12.53;2.90;;;11.50;99.90;;;;;;5036946;28;20304;-74
2023/03/13 09:33:15;;;;;;;12.97;3.73;;;11.40;99.90;;;;;;5036253;28;20401;-74
2023/03/13 09:35:41;;;;;;;15.13;4.73;;;11.40;99.90;;;;;;5041997;28;20308;-74
2023/03/13 09:38:07;;;;;;;11.80;2.73;;;11.50;99.90;;;;;;5011058;28;20311;-74
2023/03/13 09:40:46;;;;;;;17.27;3.20;;;11.70;99.90;;;;;;5024622;28;20053;-74
2023/03/13 09:43:34;;;;;;;12.53;3.07;;;11.80;99.90;;;;;;5040175;28;20546;-74
2023/03/13 09:46:04;;;;;;;13.53;2.70;;;11.90;99.90;;;;;;5040151;28;20947;-74
2023/03/13 09:48:33;;;;;;;12.30;2.87;;;12.10;99.90;;;;;;5041850;28;20374;-74
2023/03/13 09:51:20;;;;;;;12.73;3.03;;;12.20;99.90;;;;;;5053187;28;20300;-74
2023/03/13 09:53:54;;;;;;;12.97;2.70;;;12.30;99.90;;;;;;5031103;28;20292;-74
2023/03/13 09:56:26;;;;;;;13.60;3.17;;;12.40;99.90;;;;;;5021821;28;20283;-74
2023/03/13 09:58:58;;;;;;;20.23;3.93;;;12.50;99.90;;;;;;5033441;28;20295;-74
2023/03/13 10:01:30;;;;;;;13.20;3.07;;;12.50;99.90;;;;;;5039826;28;20276;-73
2023/03/13 10:04:33;;;;;;;17.13;2.87;;;12.60;99.90;;;;;;5035508;28;20310;-75
2023/03/13 10:06:59;;;;;;;18.63;3.20;;;12.70;99.90;;;;;;5027575;28;20299;-74
2023/03/13 10:09:31;;;;;;;18.23;4.03;;;12.90;99.90;;;;;;5038163;28;20280;-74
2023/03/13 10:12:28;;;;;;;19.13;3.63;;;13.10;99.90;;;;;;5040375;28;20144;-74
2023/03/13 10:15:20;;;;;;;25.17;5.30;;;13.10;99.90;;;;;;5003702;28;20363;-74
2023/03/13 10:17:46;;;;;;;18.10;3.63;;;13.00;99.90;;;;;;5042304;28;20635;-73
2023/03/13 10:20:26;;;;;;;22.93;4.10;;;13.00;99.90;;;;;;5039876;28;20706;-74
2023/03/13 10:23:15;;;;;;;24.93;3.63;;;13.00;99.90;;;;;;5039734;28;20037;-74
2023/03/13 10:25:41;;;;;;;24.63;4.17;;;13.00;99.90;;;;;;5007987;28;20287;-74
2023/03/13 10:28:15;;;;;;;18.67;4.03;;;13.00;99.90;;;;;;5029617;28;20295;-75
2023/03/13 10:31:18;;;;;;;28.15;4.15;;;13.00;99.90;;;;;;5027068;28;20037;-74
2023/03/13 10:33:44;;;;;;;17.60;4.07;;;13.00;99.90;;;;;;4987540;28;20051;-72
2023/03/13 10:36:12;;;;;;;18.73;3.87;;;13.10;99.90;;;;;;5025306;28;20352;-73
2023/03/13 10:38:48;;;;;;;15.27;3.73;;;13.10;99.90;;;;;;5044703;28;20311;-72
2023/03/13 10:41:34;;;;;;;18.53;3.93;;;13.10;99.90;;;;;;5028056;28;20284;-72
2023/03/13 10:44:03;;;;;;;21.87;3.73;;;13.10;99.90;;;;;;5036930;28;20334;-71
2023/03/13 10:46:31;;;;;;;16.53;3.30;;;13.20;99.90;;;;;;5036965;28;20290;-72
2023/03/13 10:49:00;;;;;;;22.23;3.80;;;13.20;99.90;;;;;;5042686;28;20779;-72
2023/03/13 10:51:38;;;;;;;22.83;3.47;;;13.30;99.90;;;;;;5042571;28;20347;-72
2023/03/13 10:54:36;;;;;;;20.40;3.37;;;13.30;99.90;;;;;;5041437;28;20280;-73
2023/03/13 10:57:17;;;;;;;17.57;3.70;;;13.40;99.90;;;;;;5027758;28;20296;-73
2023/03/13 10:59:51;;;;;;;18.70;3.67;;;13.40;99.90;;;;;;5043173;28;20287;-72
2023/03/13 11:02:29;;;;;;;14.18;3.83;;;13.50;99.90;;;;;;5035950;28;20299;-72
2023/03/13 11:04:55;;;;;;;13.93;3.17;;;13.50;99.90;;;;;;5050108;28;20049;-72
2023/03/13 11:07:31;;;;;;;15.57;3.50;;;13.50;99.90;;;;;;5044281;28;20303;-72
2023/03/13 11:10:02;;;;;;;18.97;3.60;;;13.60;99.90;;;;;;5043453;28;20822;-72
2023/03/13 11:12:33;;;;;;;16.73;4.60;;;13.70;99.90;;;;;;5044761;28;20328;-72
2023/03/13 11:15:00;;;;;;;17.07;4.30;;;13.80;99.90;;;;;;5048575;28;20275;-72
2023/03/13 11:17:42;;;;;;;12.33;3.77;;;13.90;99.90;;;;;;5043762;28;20283;-72
2023/03/13 11:20:25;;;;;;;15.00;3.17;;;13.70;99.90;;;;;;5044793;28;20636;-72
2023/03/13 11:23:03;;;;;;;14.40;2.83;;;13.70;99.90;;;;;;5027152;28;20276;-73
2023/03/13 11:25:47;;;;;;;12.73;2.90;;;13.70;99.90;;;;;;5032800;28;20522;-73
2023/03/13 11:28:34;;;;;;;15.60;3.07;;;13.70;99.90;;;;;;5044788;28;20335;-73
2023/03/13 11:31:08;;;;;;;14.50;3.07;;;13.70;99.90;;;;;;5038259;28;20331;-73
2023/03/13 11:33:36;;;;;;;21.00;3.43;;;13.70;99.90;;;;;;5041164;28;20311;-74
2023/03/13 11:36:09;;;;;;;16.13;3.27;;;13.70;99.90;;;;;;5039968;28;20660;-73
2023/03/13 11:38:40;;;;;;;19.07;3.70;;;13.70;99.90;;;;;;5043582;28;20272;-73
2023/03/13 11:41:57;;;;;;;20.80;3.63;;;13.70;99.90;;;;;;5032493;28;20364;-73
2023/03/13 11:44:25;;;;;;;;;;;13.70;99.90;;;;;;4985733;28;20290;-72
2023/03/13 11:47:29;;;;;;;28.07;4.30;;;13.60;99.90;;;;;;5027127;28;19943;-73
2023/03/13 11:50:03;;;;;;;24.63;5.27;;;13.80;99.90;;;;;;5043448;28;20296;-73
2023/03/13 11:53:08;;;;;;;21.88;3.92;;;13.80;99.90;;;;;;5045807;28;20656;-73
2023/03/13 11:55:40;;;;;;;15.90;3.67;;;13.80;99.90;;;;;;5036840;28;20056;-72
2023/03/13 11:58:15;;;;;;;15.80;5.00;;;13.80;99.90;;;;;;5035308;28;20292;-73
2023/03/13 12:01:00;;;;;;;19.38;4.32;;;13.70;99.90;;;;;;5041726;28;20593;-73
2023/03/13 12:03:42;;;;;;;19.92;3.97;;;13.80;99.90;;;;;;5029979;28;20041;-73
2023/03/13 12:06:22;;;;;;;23.57;4.60;;;13.90;99.90;;;;;;5034369;28;20044;-73
2023/03/13 12:08:55;;;;;;;17.73;3.80;;;14.00;99.90;;;;;;5029585;28;20292;-73
2023/03/13 12:12:02;;;;;;;19.70;5.43;;;14.00;99.90;;;;;;5054264;28;20414;-72
2023/03/13 12:14:50;;;;;;;20.20;4.37;;;14.20;99.90;;;;;;5039716;28;20296;-73
2023/03/13 12:17:38;;;;;;;20.33;4.87;;;14.10;99.90;;;;;;5043927;28;20639;-72
2023/03/13 12:20:42;;;;;;;24.03;5.60;;;13.90;99.90;;;;;;5021662;28;20280;-72
2023/03/13 12:23:49;;;;;;;22.00;4.13;;;13.90;99.90;;;;;;5015146;28;20280;-72
2023/03/13 12:26:17;;;;;;;24.13;5.13;;;13.90;99.90;;;;;;5026410;28;20284;-73
2023/03/13 12:28:43;;;;;;;24.30;5.93;;;13.70;99.90;;;;;;5049960;28;20276;-73
2023/03/13 12:31:27;;;;;;;19.63;4.63;;;13.60;99.90;;;;;;5038709;28;20354;-72
2023/03/13 12:34:34;;;;;;;20.47;4.80;;;13.70;99.90;;;;;;5022327;28;20369;-73
2023/03/13 12:37:28;;;;;;;23.60;4.60;;;13.70;99.90;;;;;;5013532;28;20276;-73
2023/03/13 12:40:20;;;;;;;23.83;4.83;;;13.70;99.90;;;;;;5028223;28;20284;-73
2023/03/13 12:42:55;;;;;;;20.27;5.03;;;13.70;99.90;;;;;;5038059;28;20739;-73
2023/03/13 12:45:24;;;;;;;19.37;4.00;;;13.70;99.90;;;;;;5050400;28;20292;-73
2023/03/13 12:48:22;;;;;;;17.73;4.83;;;13.70;99.90;;;;;;5051356;28;20286;-72
2023/03/13 12:50:57;;;;;;;16.70;4.27;;;13.80;99.90;;;;;;5037056;28;20339;-73
2023/03/13 12:53:40;;;;;;;25.83;6.63;;;14.00;99.90;;;;;;5036119;28;20296;-73
2023/03/13 12:56:12;;;;;;;23.50;4.80;;;14.10;99.90;;;;;;5041296;28;20051;-74
2023/03/13 12:58:52;;;;;;;25.87;5.33;;;14.10;99.90;;;;;;5044196;28;20294;-74